Main page
METAR-TAF:

METAR-TAF

Airports :

Tefé Airport

Tefé, Amazonas, Brazil

latitude: 03-22S, longitude: 064-41W, elevation: 47 m

Current weather observation

The report was made 8 hours and 57 minutes ago, at 22:45 UTC
Wind 3 kt from the East/Northeast
Temperature 28°C
Humidity 84%
Pressure 1008 hPa
Visibility 10 km or more
Few clouds at a height of 2000 ft
Scattered clouds at a height of 7000 ft

METAR: SBTF 192245Z 06003KT 9999 FEW020 SCT070 28/25 Q1008

Time: 03:42 (07:42 UTC)

Forecast

The report was made 3 hours and 42 minutes ago, at 04:00 UTC
Forecast valid from 20 at 06 UTC to 20 at 18 UTC
Wind 9 kt from the Southeast
Visibility 10 km or more
Scattered clouds at a height of 700 ft
Becoming
from 20 at 16 UTC to 20 at 17 UTC
Wind 7 kt from the East/Northeast
Scattered clouds at a height of 2000 ft
Few clouds at a height of 2500 ft, Towering cumulus.

TAF: SBTF 200400Z 2006/2018 14009KT 9999 SCT007 TN20/2007Z TX31/2017Z BECMG 2016/2017 06007KT SCT020 FEW025TCU RMK PEM

Weather observations and forecasts of more than 4000 airports (METAR and TAF reports).

The available stations are represented by yellow and red dots on the map.

Hover mouse over dot to see the name of the station.

Then click to see weather observations and forecasts.

To change the map : click on the green buttons with a black cross to zoom in, on the green button with a dash to zoom out, or on the green arrows for adjacent maps.


METAR-TAF: